createdAt,value
2023-01-03T00:02:13.408Z,96245.56
2023-01-03T00:05:56.132Z,96262.16
2023-01-03T00:09:40.125Z,96256.06
2023-01-03T00:13:22.803Z,96261.16
2023-01-03T00:17:06.781Z,96267.69
2023-01-03T00:20:52.267Z,96275.63
2023-01-03T00:24:34.955Z,96267.09
2023-01-03T00:28:19.464Z,96279.03
2023-01-03T00:32:02.207Z,96289.56
2023-01-03T00:35:44.832Z,96280.44
2023-01-03T00:39:27.791Z,96290.38
2023-01-03T00:43:28.110Z,96294.34
2023-01-03T00:47:12.241Z,96308.25
2023-01-03T00:50:55.238Z,96303.72
2023-01-03T00:54:38.135Z,96302.03
2023-01-03T00:58:23.910Z,96305.84
2023-01-03T01:02:06.718Z,96304.09
2023-01-03T01:05:50.826Z,96312.16
2023-01-03T01:09:35.375Z,96320.53
2023-01-03T01:13:18.003Z,96324.47
2023-01-03T01:17:08.195Z,96317.09
2023-01-03T01:20:52.252Z,96321.69
2023-01-03T01:24:35.111Z,96326.69
2023-01-03T01:28:18.235Z,96338.84
2023-01-03T01:32:01.776Z,96336.91
2023-01-03T01:35:44.548Z,96337.25
2023-01-03T01:39:29.492Z,96328.09
2023-01-03T01:43:35.355Z,96339.56
2023-01-03T01:47:23.597Z,96338.25
2023-01-03T01:51:06.586Z,96336.94
2023-01-03T01:54:52.969Z,96344.16
2023-01-03T01:58:38.580Z,96349.41
2023-01-03T02:02:22.826Z,96346.63
2023-01-03T02:06:08.108Z,96356.31
2023-01-03T02:09:56.852Z,96349.59
2023-01-03T02:13:50.548Z,96354.97
2023-01-03T02:17:42.627Z,96360.56
2023-01-03T02:21:56.371Z,96367.28
2023-01-03T02:26:04.635Z,96365.81
2023-01-03T02:30:10.621Z,96369.38
2023-01-03T02:33:58.320Z,96363.31
2023-01-03T02:37:43.493Z,96358.91
2023-01-03T02:41:33.504Z,96362.50
2023-01-03T02:45:20.739Z,96358.56
2023-01-03T02:49:08.008Z,96367.03
2023-01-03T02:52:51.970Z,96366.56
2023-01-03T02:56:38.077Z,96369.50
2023-01-03T03:00:24.369Z,96381.78
2023-01-03T03:04:08.636Z,96371.78
2023-01-03T03:07:51.347Z,96383.91
2023-01-03T03:11:54.971Z,96373.25
2023-01-03T03:15:42.176Z,96368.03
2023-01-03T03:19:45.511Z,96368.69
2023-01-03T03:23:48.353Z,96360.50
2023-01-03T03:27:50.120Z,96362.63
2023-01-03T03:31:36.715Z,96369.50
2023-01-03T03:35:22.825Z,96383.91
2023-01-03T03:39:06.138Z,96370.50
2023-01-03T03:43:09.929Z,96367.25
2023-01-03T03:46:57.479Z,96372.31
2023-01-03T03:50:45.077Z,96353.81
2023-01-03T03:54:29.741Z,96359.22
2023-01-03T03:58:32.324Z,96364.78
2023-01-03T04:02:16.911Z,96355.28
2023-01-03T04:06:01.821Z,96361.53
2023-01-03T04:09:44.718Z,96370.22
2023-01-03T04:13:28.869Z,96370.06
2023-01-03T04:17:11.707Z,96368.09
2023-01-03T04:20:54.384Z,96363.50
2023-01-03T04:24:37.043Z,96366.47
2023-01-03T04:28:21.857Z,96363.84
2023-01-03T04:32:10.044Z,96363.19
2023-01-03T04:35:52.865Z,96376.63
2023-01-03T04:39:35.555Z,96369.91
2023-01-03T04:43:38.206Z,96387.75
2023-01-03T04:47:22.262Z,96381.84
2023-01-03T04:51:07.997Z,96381.19
2023-01-03T04:54:50.652Z,96388.38
2023-01-03T04:58:33.559Z,96372.66
2023-01-03T05:02:16.414Z,96379.22
2023-01-03T05:06:01.513Z,96377.59
2023-01-03T05:09:44.710Z,96382.50
2023-01-03T05:13:27.382Z,96394.63
2023-01-03T05:17:10.091Z,96390.38
2023-01-03T05:21:13.161Z,96396.44
2023-01-03T05:25:14.510Z,96390.38
2023-01-03T05:28:57.204Z,96408.41
2023-01-03T05:32:42.536Z,96401.00
2023-01-03T05:36:25.152Z,96400.19
2023-01-03T05:40:10.575Z,96412.47
2023-01-03T05:43:53.161Z,96407.75
2023-01-03T05:47:35.823Z,96416.44
2023-01-03T05:51:18.497Z,96409.69
2023-01-03T05:55:01.371Z,96416.44
2023-01-03T05:58:45.593Z,96413.31
2023-01-03T06:02:29.461Z,96413.66
2023-01-03T06:06:13.103Z,96410.38
2023-01-03T06:09:55.940Z,96409.03
2023-01-03T06:13:38.919Z,96408.84
2023-01-03T06:17:40.876Z,96424.44
2023-01-03T06:21:23.556Z,96417.91
2023-01-03T06:25:06.922Z,96424.13
2023-01-03T06:28:49.620Z,96422.97
2023-01-03T06:32:33.619Z,96425.75
2023-01-03T06:36:17.890Z,96437.34
2023-01-03T06:40:00.535Z,96431.41
2023-01-03T06:43:43.683Z,96438.16
2023-01-03T06:47:46.922Z,96438.84
2023-01-03T06:51:49.650Z,96437.88
2023-01-03T06:55:32.307Z,96437.06
2023-01-03T06:59:15.023Z,96448.69
2023-01-03T07:02:57.804Z,96447.34
2023-01-03T07:06:42.421Z,96454.22
2023-01-03T07:10:25.265Z,96457.53
2023-01-03T07:14:09.527Z,96464.44
2023-01-03T07:17:52.179Z,96464.72
2023-01-03T07:21:35.928Z,96475.91
2023-01-03T07:25:20.199Z,96469.34
2023-01-03T07:29:04.868Z,96478.53
2023-01-03T07:32:47.552Z,96481.78
2023-01-03T07:36:30.251Z,96489.97
2023-01-03T07:40:13.390Z,96486.34
2023-01-03T07:43:57.374Z,96484.03
2023-01-03T07:47:44.927Z,96486.34
2023-01-03T07:51:27.618Z,96482.41
2023-01-03T07:55:10.379Z,96502.41
2023-01-03T07:58:53.424Z,96502.38
2023-01-03T08:02:38.318Z,96492.19
2023-01-03T08:06:22.656Z,96497.38
2023-01-03T08:10:23.779Z,96502.63
2023-01-03T08:14:06.395Z,96516.38
2023-01-03T08:17:50.370Z,96514.09
2023-01-03T08:21:35.796Z,96521.91
2023-01-03T08:25:18.437Z,96526.50
2023-01-03T08:29:04.014Z,96531.72
2023-01-03T08:32:46.877Z,96532.72
2023-01-03T08:36:36.589Z,96533.88
2023-01-03T08:40:19.823Z,96540.28
2023-01-03T08:44:04.151Z,96534.72
2023-01-03T08:47:47.710Z,96544.75
2023-01-03T08:51:31.750Z,96553.94
2023-01-03T08:55:14.413Z,96557.22
2023-01-03T08:58:57.856Z,96559.03
2023-01-03T09:02:40.636Z,96561.31
2023-01-03T09:06:23.520Z,96562.78
2023-01-03T09:10:08.333Z,96581.63
2023-01-03T09:13:51.068Z,96571.66
2023-01-03T09:17:33.830Z,96558.72
2023-01-03T09:21:16.488Z,96573.28
2023-01-03T09:24:59.166Z,96570.19
2023-01-03T09:28:43.193Z,96566.94
2023-01-03T09:32:25.888Z,96567.63
2023-01-03T09:36:09.067Z,96584.69
2023-01-03T09:39:51.829Z,96581.09
2023-01-03T09:43:40.825Z,96583.03
2023-01-03T09:47:26.269Z,96577.16
2023-01-03T09:51:30.941Z,96584.38
2023-01-03T09:55:41.608Z,96577.53
2023-01-03T09:59:41.884Z,96568.66
2023-01-03T10:03:50.876Z,96571.44
2023-01-03T10:07:48.282Z,96570.97
2023-01-03T10:11:38.754Z,96557.03
2023-01-03T10:15:26.851Z,96566.53
2023-01-03T10:19:30.471Z,96557.50
2023-01-03T10:23:13.158Z,96562.44
2023-01-03T10:26:58.310Z,96560.16
2023-01-03T10:30:59.490Z,96557.84
2023-01-03T10:34:44.957Z,96563.09
2023-01-03T10:38:28.041Z,96552.63
2023-01-03T10:42:18.305Z,96547.38
2023-01-03T10:46:03.341Z,96555.72
2023-01-03T10:49:48.180Z,96543.97
2023-01-03T10:53:30.874Z,96546.06
2023-01-03T10:57:39.232Z,96551.66
2023-01-03T11:01:24.034Z,96548.41
2023-01-03T11:05:12.824Z,96546.38
2023-01-03T11:09:01.460Z,96540.66
2023-01-03T11:12:44.262Z,96543.16
2023-01-03T11:16:31.432Z,96528.06
2023-01-03T11:20:20.406Z,96529.72
2023-01-03T11:24:09.964Z,96539.88
2023-01-03T11:28:06.052Z,96541.03
2023-01-03T11:31:55.337Z,96538.91
2023-01-03T11:36:01.786Z,96539.22
2023-01-03T11:39:57.872Z,96535.44
2023-01-03T11:43:51.142Z,96536.94
2023-01-03T11:47:39.499Z,96531.03
2023-01-03T11:51:30.279Z,96521.50
2023-01-03T11:55:33.550Z,96513.97
2023-01-03T11:59:43.538Z,96517.25
2023-01-03T12:03:36.153Z,96506.91
2023-01-03T12:11:40.592Z,96504.78
2023-01-03T12:15:25.520Z,96511.66
2023-01-03T12:19:24.066Z,96503.44
2023-01-03T12:23:15.804Z,96511.00
2023-01-03T12:27:03.205Z,96507.03
2023-01-03T12:30:49.474Z,96512.28
2023-01-03T12:34:37.786Z,96504.59
2023-01-03T12:38:25.503Z,96507.06
2023-01-03T12:42:19.092Z,96505.09
2023-01-03T12:46:12.543Z,96508.06
2023-01-03T12:50:01.920Z,96497.53
2023-01-03T12:53:48.896Z,96497.22
2023-01-03T12:57:51.034Z,96491.63
2023-01-03T13:01:38.616Z,96492.63
2023-01-03T13:05:26.029Z,96484.75
2023-01-03T13:09:18.187Z,96484.09
2023-01-03T13:13:01.981Z,96484.59
2023-01-03T13:16:46.678Z,96485.56
2023-01-03T13:20:36.769Z,96490.31
2023-01-03T13:24:41.818Z,96487.72
2023-01-03T13:28:35.042Z,96495.75
2023-01-03T13:32:21.676Z,96496.75
2023-01-03T13:36:04.882Z,96484.78
2023-01-03T13:41:07.643Z,96485.09
2023-01-03T13:44:34.420Z,96494.63
2023-01-03T13:48:18.922Z,96495.94
2023-01-03T13:52:05.778Z,96492.16
2023-01-03T13:55:59.026Z,96490.19
2023-01-03T13:59:46.426Z,96495.63
2023-01-03T14:03:55.134Z,96499.53
2023-01-03T14:07:57.716Z,96505.13
2023-01-03T14:12:11.092Z,96497.25
2023-01-03T14:16:18.296Z,96515.28
2023-01-03T14:20:04.361Z,96511.69
2023-01-03T14:24:02.559Z,96513.31
2023-01-03T14:27:45.218Z,96508.41
2023-01-03T14:31:29.478Z,96517.25
2023-01-03T14:35:33.669Z,96516.28
2023-01-03T14:39:22.942Z,96516.44
2023-01-03T14:43:06.084Z,96522.16
2023-01-03T14:46:56.474Z,96523.81
2023-01-03T14:50:43.156Z,96520.97
2023-01-03T14:54:25.988Z,96517.88
2023-01-03T14:58:24.434Z,96519.66
2023-01-03T15:02:11.420Z,96533.94
2023-01-03T15:05:58.392Z,96535.56
2023-01-03T15:09:41.166Z,96540.81
2023-01-03T15:13:27.344Z,96542.59
2023-01-03T15:17:16.291Z,96552.59
2023-01-03T15:21:00.748Z,96556.19
2023-01-03T15:24:45.709Z,96562.25
2023-01-03T15:28:30.801Z,96553.56
2023-01-03T15:32:20.110Z,96565.84
2023-01-03T15:36:06.629Z,96567.97
2023-01-03T15:39:55.435Z,96570.91
2023-01-03T15:43:39.190Z,96566.94
2023-01-03T15:47:25.132Z,96562.69
2023-01-03T15:51:07.932Z,96562.88
2023-01-03T15:54:50.655Z,96565.84
2023-01-03T15:58:34.025Z,96566.34
2023-01-03T16:02:17.985Z,96565.34
2023-01-03T16:06:02.793Z,96581.75
2023-01-03T16:09:45.956Z,96579.75
2023-01-03T16:13:32.502Z,96575.50
2023-01-03T16:17:25.104Z,96571.91
2023-01-03T16:21:09.630Z,96574.50
2023-01-03T16:24:52.313Z,96583.03
2023-01-03T16:28:35.780Z,96583.66
2023-01-03T16:32:19.994Z,96578.56
2023-01-03T16:36:02.855Z,96586.44
2023-01-03T16:39:48.591Z,96581.00
2023-01-03T16:43:31.600Z,96583.59
2023-01-03T16:47:16.102Z,96591.09
2023-01-03T16:50:58.811Z,96592.00
2023-01-03T16:54:42.074Z,96588.22
2023-01-03T16:58:26.288Z,96594.09
2023-01-03T17:02:09.287Z,96590.75
2023-01-03T17:05:52.232Z,96587.28
2023-01-03T17:09:36.896Z,96595.09
2023-01-03T17:13:28.610Z,96592.44
2023-01-03T17:17:16.666Z,96595.63
2023-01-03T17:21:01.544Z,96592.34
2023-01-03T17:24:44.634Z,96595.94
2023-01-03T17:28:29.706Z,96603.28
2023-01-03T17:32:17.853Z,96609.78
2023-01-03T17:36:00.531Z,96606.81
2023-01-03T17:39:43.348Z,96609.88
2023-01-03T17:43:29.391Z,96610.03
2023-01-03T17:47:39.378Z,96618.34
2023-01-03T17:51:22.284Z,96623.72
2023-01-03T17:55:06.924Z,96611.91
2023-01-03T17:58:55.943Z,96606.47
2023-01-03T18:02:40.875Z,96613.63
2023-01-03T18:06:25.400Z,96606.91
2023-01-03T18:10:11.091Z,96606.41
2023-01-03T18:13:53.895Z,96600.19
2023-01-03T18:17:36.527Z,96599.38
2023-01-03T18:21:22.716Z,96601.84
2023-01-03T18:25:08.589Z,96615.44
2023-01-03T18:28:51.514Z,96612.22
2023-01-03T18:32:35.593Z,96630.06
2023-01-03T18:36:27.555Z,96624.25
2023-01-03T18:40:17.367Z,96621.00
2023-01-03T18:44:00.221Z,96617.78
2023-01-03T18:47:42.924Z,96612.41
2023-01-03T18:51:29.483Z,96619.13
2023-01-03T18:55:16.493Z,96619.44
2023-01-03T18:59:02.620Z,96616.16
2023-01-03T19:02:45.951Z,96620.25
2023-01-03T19:06:33.199Z,96618.09
2023-01-03T19:10:21.675Z,96624.66
2023-01-03T19:14:05.791Z,96619.44
2023-01-03T19:17:48.655Z,96615.53
2023-01-03T19:21:35.478Z,96622.63
2023-01-03T19:25:23.480Z,96621.50
2023-01-03T19:29:08.134Z,96611.72
2023-01-03T19:32:53.846Z,96600.13
2023-01-03T19:36:37.861Z,96605.28
2023-01-03T19:40:21.804Z,96603.13
2023-01-03T19:44:04.643Z,96593.16
2023-01-03T19:47:47.310Z,96599.72
2023-01-03T19:51:29.931Z,96592.56
2023-01-03T19:55:14.007Z,96588.53
2023-01-03T19:59:02.943Z,96583.34
2023-01-03T20:02:46.673Z,96601.03
2023-01-03T20:06:29.397Z,96597.09
2023-01-03T20:10:17.043Z,96595.25
2023-01-03T20:13:59.746Z,96577.06
2023-01-03T20:17:42.384Z,96588.31
2023-01-03T20:21:27.425Z,96588.03
2023-01-03T20:25:23.645Z,96594.19
2023-01-03T20:29:06.531Z,96590.88
2023-01-03T20:32:49.313Z,96596.13
2023-01-03T20:36:33.990Z,96579.91
2023-01-03T20:40:20.483Z,96595.25
2023-01-03T20:44:04.922Z,96596.50
2023-01-03T20:47:49.922Z,96594.34
2023-01-03T20:51:32.656Z,96599.88
2023-01-03T20:55:16.183Z,96606.03
2023-01-03T20:58:59.054Z,96589.25
2023-01-03T21:02:43.663Z,96595.75
2023-01-03T21:06:29.490Z,96593.44
2023-01-03T21:10:20.483Z,96597.03
2023-01-03T21:14:03.895Z,96598.97
2023-01-03T21:17:51.509Z,96601.59
2023-01-03T21:21:34.772Z,96590.16
2023-01-03T21:25:22.620Z,96585.75
2023-01-03T21:29:05.468Z,96598.66
2023-01-03T21:32:49.534Z,96601.97
2023-01-03T21:36:34.620Z,96601.66
2023-01-03T21:40:19.190Z,96599.41
2023-01-03T21:44:03.573Z,96595.72
2023-01-03T21:47:46.262Z,96587.97
2023-01-03T21:51:38.396Z,96593.38
2023-01-03T21:55:21.729Z,96588.22
2023-01-03T21:59:04.625Z,96587.78
2023-01-03T22:03:05.335Z,96596.06
2023-01-03T22:06:49.507Z,96594.25
2023-01-03T22:10:32.462Z,96593.59
2023-01-03T22:14:15.191Z,96600.09
2023-01-03T22:17:58.291Z,96599.13
2023-01-03T22:21:40.975Z,96595.53
2023-01-03T22:25:24.992Z,96596.78
2023-01-03T22:29:07.648Z,96591.50
2023-01-03T22:32:50.295Z,96583.56
2023-01-03T22:36:32.956Z,96584.41
2023-01-03T22:40:17.868Z,96578.41
2023-01-03T22:44:01.972Z,96580.66
2023-01-03T22:47:44.730Z,96587.00
2023-01-03T22:51:27.410Z,96585.78
2023-01-03T22:55:12.770Z,96585.41
2023-01-03T22:58:55.551Z,96570.69
2023-01-03T23:02:42.118Z,96571.41
2023-01-03T23:06:25.430Z,96568.28
2023-01-03T23:10:09.837Z,96579.94
2023-01-03T23:13:52.556Z,96571.44
2023-01-03T23:17:52.767Z,96565.09
2023-01-03T23:21:39.285Z,96573.91
2023-01-03T23:25:23.014Z,96569.13
2023-01-03T23:29:05.734Z,96564.31
2023-01-03T23:32:51.561Z,96557.75
2023-01-03T23:36:34.243Z,96554.75
2023-01-03T23:40:18.485Z,96556.69
2023-01-03T23:44:01.508Z,96555.47
2023-01-03T23:47:46.860Z,96553.28
2023-01-03T23:51:29.500Z,96561.00
2023-01-03T23:55:12.870Z,96553.75
2023-01-03T23:58:57.197Z,96552.38
